createdAt,value
2022-08-05T00:00:51.634Z,81.34
2022-08-05T00:01:48.847Z,81.43
2022-08-05T00:02:49.140Z,82.03
2022-08-05T00:03:44.117Z,82.83
2022-08-05T00:04:43.487Z,82.93
2022-08-05T00:06:05.771Z,82.34
2022-08-05T00:06:44.085Z,81.63
2022-08-05T00:07:59.920Z,81.63
2022-08-05T00:08:44.035Z,81.54
2022-08-05T00:09:43.354Z,81.54
2022-08-05T00:10:43.011Z,81.84
2022-08-05T00:11:49.169Z,81.84
2022-08-05T00:12:56.541Z,82.43
2022-08-05T00:13:43.965Z,82.43
2022-08-05T00:14:44.290Z,82.67
2022-08-05T00:15:54.969Z,82.67
2022-08-05T00:16:52.497Z,83.07
2022-08-05T00:17:43.915Z,83.27
2022-08-05T00:18:42.905Z,83.47
2022-08-05T00:19:45.782Z,83.27
2022-08-05T00:20:44.329Z,83.37
2022-08-05T00:21:42.877Z,83.27
2022-08-05T00:22:47.094Z,83.27
2022-08-05T00:23:46.364Z,83.17
2022-08-05T00:24:43.856Z,83.27
2022-08-05T00:25:46.069Z,83.37
2022-08-05T00:26:46.729Z,83.57
2022-08-05T00:27:43.801Z,83.57
2022-08-05T00:28:42.774Z,83.71
2022-08-05T00:29:42.775Z,83.91
2022-08-05T00:30:44.086Z,84.01
2022-08-05T00:32:10.135Z,84.61
2022-08-05T00:32:43.756Z,84.91
2022-08-05T00:34:55.586Z,85.01
2022-08-05T00:35:05.326Z,84.91
2022-08-05T00:35:47.828Z,84.65
2022-08-05T00:37:11.169Z,84.55
2022-08-05T00:37:52.324Z,84.65
2022-08-05T00:38:43.662Z,84.75
2022-08-05T00:39:57.149Z,84.75
2022-08-05T00:40:51.983Z,84.95
2022-08-05T00:41:51.528Z,85.09
2022-08-05T00:42:43.594Z,85.09
2022-08-05T00:43:49.655Z,84.99
2022-08-05T00:44:43.603Z,84.99
2022-08-05T00:45:43.838Z,84.69
2022-08-05T00:46:43.648Z,84.73
2022-08-05T00:47:56.656Z,84.73
2022-08-05T00:48:51.295Z,84.63
2022-08-05T00:49:44.674Z,84.43
2022-08-05T00:50:45.842Z,84.23
2022-08-05T00:51:51.032Z,83.73
2022-08-05T00:52:45.528Z,83.63
2022-08-05T00:54:00.439Z,83.43
2022-08-05T00:54:43.462Z,83.69
2022-08-05T00:55:43.807Z,84.19
2022-08-05T00:56:51.314Z,84.49
2022-08-05T00:57:58.063Z,84.69
2022-08-05T00:58:44.959Z,84.59
2022-08-05T00:59:44.713Z,84.69
2022-08-05T01:00:42.553Z,84.59
2022-08-05T01:01:49.241Z,84.49
2022-08-05T01:02:43.349Z,84.59
2022-08-05T01:03:42.324Z,84.69
2022-08-05T01:04:42.356Z,84.79
2022-08-05T01:05:42.300Z,84.89
2022-08-05T01:06:48.461Z,84.99
2022-08-05T01:08:40.188Z,85.29
2022-08-05T01:08:44.329Z,85.39
2022-08-05T01:09:42.244Z,85.59
2022-08-05T01:10:52.526Z,85.99
2022-08-05T01:11:43.231Z,86.03
2022-08-05T01:12:42.222Z,86.23
2022-08-05T01:13:57.695Z,86.53
2022-08-05T01:14:43.181Z,86.63
2022-08-05T01:15:47.904Z,86.53
2022-08-05T01:16:44.348Z,86.53
2022-08-05T01:17:44.092Z,86.73
2022-08-05T01:18:42.500Z,86.93
2022-08-05T01:20:01.637Z,86.83
2022-08-05T01:20:43.141Z,86.83
2022-08-05T01:21:42.108Z,87.03
2022-08-05T01:22:43.081Z,87.18
2022-08-05T01:23:42.070Z,87.27
2022-08-05T01:24:42.364Z,87.27
2022-08-05T01:25:42.029Z,87.48
2022-08-05T01:26:43.027Z,87.48
2022-08-05T01:27:55.397Z,87.37
2022-08-05T01:28:43.009Z,87.57
2022-08-05T01:29:42.921Z,87.87
2022-08-05T01:30:50.646Z,87.77
2022-08-05T01:31:45.198Z,87.98
2022-08-05T01:32:41.969Z,87.87
2022-08-05T01:33:41.940Z,87.87
2022-08-05T01:34:43.211Z,87.77
2022-08-05T01:35:51.854Z,87.68
2022-08-05T01:36:47.017Z,87.77
2022-08-05T01:37:44.399Z,87.77
2022-08-05T01:38:41.850Z,87.87
2022-08-05T01:39:46.703Z,87.87
2022-08-05T01:40:42.847Z,87.68
2022-08-05T01:41:44.456Z,87.57
2022-08-05T01:42:41.816Z,88.07
2022-08-05T01:43:41.795Z,87.68
2022-08-05T01:44:41.789Z,87.57
2022-08-05T01:45:43.039Z,87.27
2022-08-05T01:46:46.204Z,86.87
2022-08-05T01:47:43.418Z,85.68
2022-08-05T01:48:41.747Z,85.37
2022-08-05T01:50:01.809Z,84.97
2022-08-05T01:50:50.884Z,84.47
2022-08-05T01:51:42.698Z,84.37
2022-08-05T01:52:42.707Z,84.27
2022-08-05T01:53:58.259Z,83.97
2022-08-05T01:54:45.764Z,83.57
2022-08-05T01:55:41.641Z,83.47
2022-08-05T01:58:10.721Z,83.07
2022-08-05T01:58:12.555Z,83.17
2022-08-05T01:58:44.941Z,82.97
2022-08-05T01:59:41.577Z,82.33
2022-08-05T02:00:42.579Z,81.83
2022-08-05T02:01:42.052Z,81.43
2022-08-05T02:02:46.368Z,80.93
2022-08-05T02:03:42.537Z,80.53
2022-08-05T02:04:41.518Z,80.19
2022-08-05T02:05:42.660Z,79.79
2022-08-05T02:06:41.907Z,79.39
2022-08-05T02:07:41.495Z,79.19
2022-08-05T02:08:54.914Z,78.79
2022-08-05T02:09:42.458Z,77.75
2022-08-05T02:10:41.446Z,77.25
2022-08-05T02:11:42.227Z,77.15
2022-08-05T02:12:42.406Z,77.12
2022-08-05T02:13:53.811Z,76.52
2022-08-05T02:14:43.155Z,76.52
2022-08-05T02:15:41.385Z,76.22
2022-08-05T02:16:41.765Z,76.12
2022-08-05T02:18:33.038Z,75.72
2022-08-05T02:18:42.424Z,75.59
2022-08-05T02:19:47.659Z,75.38
2022-08-05T02:20:42.319Z,75.38
2022-08-05T02:21:46.627Z,75.18
2022-08-05T02:22:42.670Z,75.09
2022-08-05T02:23:41.314Z,74.88
2022-08-05T02:24:51.456Z,74.98
2022-08-05T02:25:49.146Z,74.68
2022-08-05T02:26:54.091Z,74.98
2022-08-05T02:30:23.919Z,74.82
2022-08-05T02:31:23.459Z,74.12
2022-08-05T02:32:31.489Z,74.32
2022-08-05T02:33:38.322Z,74.22
2022-08-05T02:35:38.564Z,73.19
2022-08-05T02:37:46.537Z,73.69
2022-08-05T02:38:53.515Z,74.08
2022-08-05T02:39:52.239Z,74.58
2022-08-05T02:40:44.734Z,74.82
2022-08-05T02:42:00.581Z,74.52
2022-08-05T02:42:45.699Z,74.22
2022-08-05T02:46:04.493Z,73.32
2022-08-05T02:47:11.193Z,73.62
2022-08-05T02:48:11.835Z,73.22
2022-08-05T02:49:05.017Z,72.78
2022-08-05T02:50:05.017Z,72.89
2022-08-05T02:51:04.287Z,72.78
2022-08-05T02:52:04.815Z,72.19
2022-08-05T02:53:03.987Z,71.95
2022-08-05T02:54:04.255Z,71.66
2022-08-05T02:55:05.134Z,71.86
2022-08-05T02:56:03.936Z,71.86
2022-08-05T02:57:05.148Z,71.66
2022-08-05T02:59:14.177Z,71.66
2022-08-05T03:00:14.083Z,71.36
2022-08-05T03:01:14.144Z,71.45
2022-08-05T03:02:14.474Z,71.45
2022-08-05T03:03:14.055Z,71.45
2022-08-05T03:04:23.138Z,71.45
2022-08-05T03:05:14.034Z,71.56
2022-08-05T03:08:00.136Z,71.95
2022-08-05T03:08:42.570Z,72.05
2022-08-05T03:09:38.231Z,72.16
2022-08-05T03:10:34.235Z,72.45
2022-08-05T03:11:56.215Z,72.75
2022-08-05T03:12:35.635Z,72.95
2022-08-05T03:13:52.111Z,73.05
2022-08-05T03:14:35.181Z,73.05
2022-08-05T03:15:35.196Z,73.45
2022-08-05T03:16:35.606Z,73.39
2022-08-05T03:17:34.155Z,73.58
2022-08-05T03:18:35.453Z,73.79
2022-08-05T03:19:36.103Z,74.08
2022-08-05T03:20:34.113Z,74.19
2022-08-05T03:21:43.585Z,74.12
2022-08-05T03:22:35.104Z,74.12
2022-08-05T03:23:35.547Z,74.12
2022-08-05T03:24:35.021Z,74.42
2022-08-05T03:26:05.107Z,74.42
2022-08-05T03:26:35.022Z,74.42
2022-08-05T03:27:57.962Z,74.52
2022-08-05T03:28:35.101Z,74.32
2022-08-05T03:29:45.406Z,74.42
2022-08-05T03:30:34.992Z,74.62
2022-08-05T03:31:57.207Z,74.26
2022-08-05T03:32:34.955Z,74.36
2022-08-05T03:33:51.123Z,74.55
2022-08-05T03:34:35.362Z,74.36
2022-08-05T03:35:41.111Z,74.46
2022-08-05T03:36:34.916Z,74.42
2022-08-05T03:37:45.874Z,74.22
2022-08-05T03:38:37.477Z,74.02
2022-08-05T03:39:47.408Z,74.22
2022-08-05T03:40:36.832Z,74.42
2022-08-05T03:41:45.159Z,74.42
2022-08-05T03:42:52.177Z,74.52
2022-08-05T03:44:09.663Z,75.02
2022-08-05T03:44:35.275Z,75.16
2022-08-05T03:45:58.192Z,75.56
2022-08-05T03:46:34.891Z,75.56
2022-08-05T03:47:35.467Z,75.96
2022-08-05T03:48:35.168Z,76.35
2022-08-05T03:49:51.353Z,76.49
2022-08-05T03:50:35.151Z,76.59
2022-08-05T03:52:37.213Z,76.79
2022-08-05T03:52:37.481Z,76.59
2022-08-05T03:55:52.466Z,77.09
2022-08-05T03:55:54.699Z,76.79
2022-08-05T03:56:05.994Z,76.99
2022-08-05T03:56:35.067Z,77.09
2022-08-05T03:57:42.521Z,76.99
2022-08-05T03:58:35.192Z,77.29
2022-08-05T03:59:46.947Z,77.19
2022-08-05T04:00:36.379Z,77.19
2022-08-05T04:01:34.092Z,77.39
2022-08-05T04:02:38.920Z,77.33
2022-08-05T04:03:34.548Z,77.33
2022-08-05T04:04:33.550Z,77.43
2022-08-05T04:05:34.474Z,77.33
2022-08-05T04:06:33.512Z,77.13
2022-08-05T04:07:34.591Z,77.03
2022-08-05T04:08:36.276Z,77.13
2022-08-05T04:09:36.675Z,77.13
2022-08-05T04:10:37.695Z,77.33
2022-08-05T04:11:50.629Z,77.43
2022-08-05T04:13:08.333Z,77.43
2022-08-05T04:14:08.152Z,77.13
2022-08-05T04:15:08.173Z,77.03
2022-08-05T04:16:09.179Z,77.13
2022-08-05T04:17:09.141Z,77.43
2022-08-05T04:18:09.728Z,77.33
2022-08-05T04:19:10.591Z,77.23
2022-08-05T04:20:08.093Z,77.03
2022-08-05T04:21:10.930Z,77.23
2022-08-05T04:22:11.560Z,76.93
2022-08-05T04:23:08.075Z,76.53
2022-08-05T04:24:09.165Z,76.33
2022-08-05T04:25:09.013Z,76.43
2022-08-05T04:26:08.039Z,76.23
2022-08-05T04:27:09.110Z,76.39
2022-08-05T04:28:11.190Z,76.59
2022-08-05T04:29:07.983Z,76.73
2022-08-05T04:30:07.961Z,76.83
2022-08-05T04:31:08.407Z,76.83
2022-08-05T04:32:07.911Z,76.93
2022-08-05T04:33:08.389Z,77.03
2022-08-05T04:34:31.357Z,77.13
2022-08-05T04:35:17.534Z,77.33
2022-08-05T04:36:15.667Z,77.43
2022-08-05T04:37:08.858Z,77.73
2022-08-05T04:38:07.893Z,77.83
2022-08-05T04:39:08.020Z,78.03
2022-08-05T04:40:07.828Z,78.13
2022-08-05T04:41:09.486Z,78.23
2022-08-05T04:42:07.828Z,78.33
2022-08-05T04:43:10.956Z,78.53
2022-08-05T04:44:09.885Z,78.53
2022-08-05T04:45:07.798Z,78.83
2022-08-05T04:46:08.753Z,78.93
2022-08-05T04:47:09.561Z,78.83
2022-08-05T04:48:07.718Z,78.83
2022-08-05T04:49:14.634Z,78.93
2022-08-05T04:50:11.629Z,78.73
2022-08-05T04:51:11.109Z,78.73
2022-08-05T04:52:07.855Z,78.73
2022-08-05T04:53:07.700Z,78.43
2022-08-05T04:54:07.688Z,78.53
2022-08-05T04:55:14.655Z,78.29
2022-08-05T04:56:33.694Z,78.09
2022-08-05T04:57:08.610Z,78.09
2022-08-05T04:58:07.654Z,78.09
2022-08-05T04:59:22.141Z,77.99
2022-08-05T05:00:08.947Z,78.09
2022-08-05T05:01:07.637Z,78.19
2022-08-05T05:02:37.169Z,78.19
2022-08-05T05:03:08.620Z,77.99
2022-08-05T05:04:07.521Z,77.99
2022-08-05T05:05:17.030Z,77.89
2022-08-05T05:06:40.556Z,78.39
2022-08-05T05:07:09.380Z,78.19
2022-08-05T05:08:07.961Z,78.29
2022-08-05T05:09:08.461Z,78.39
2022-08-05T05:10:07.437Z,78.29
2022-08-05T05:11:07.456Z,78.09
2022-08-05T05:12:07.859Z,78.29
2022-08-05T05:13:07.405Z,78.09
2022-08-05T05:14:08.699Z,78.29
2022-08-05T05:15:10.942Z,78.49
2022-08-05T05:16:07.371Z,78.39
2022-08-05T05:17:09.400Z,78.59
2022-08-05T05:18:07.715Z,78.09
2022-08-05T05:19:19.439Z,78.05
2022-08-05T05:20:08.312Z,77.86
2022-08-05T05:21:07.325Z,77.56
2022-08-05T05:22:22.945Z,77.72
2022-08-05T05:23:19.831Z,77.32
2022-08-05T05:24:09.096Z,77.32
2022-08-05T05:25:16.796Z,76.92
2022-08-05T05:26:08.234Z,76.82
2022-08-05T05:27:07.248Z,77.02
2022-08-05T05:28:07.205Z,76.82
2022-08-05T05:29:14.340Z,76.68
2022-08-05T05:30:08.309Z,76.58
2022-08-05T05:31:08.994Z,76.58
2022-08-05T05:32:07.187Z,76.28
2022-08-05T05:33:16.302Z,75.98
2022-08-05T05:34:08.143Z,76.18
2022-08-05T05:35:07.124Z,76.08
2022-08-05T05:36:07.104Z,75.98
2022-08-05T05:37:07.104Z,75.85
2022-08-05T05:38:09.448Z,75.45
2022-08-05T05:39:10.916Z,75.45
2022-08-05T05:40:07.081Z,75.25
2022-08-05T05:41:07.653Z,75.35
2022-08-05T05:42:07.057Z,75.11
2022-08-05T05:43:08.667Z,74.62
2022-08-05T05:44:35.679Z,74.51
2022-08-05T05:45:08.347Z,74.41
2022-08-05T05:46:10.718Z,74.71
2022-08-05T05:47:21.619Z,74.08
2022-08-05T05:48:08.623Z,73.98
2022-08-05T05:49:22.351Z,73.88
2022-08-05T05:50:07.934Z,73.44
2022-08-05T05:51:15.706Z,73.44
2022-08-05T05:52:07.923Z,73.35
2022-08-05T05:53:21.453Z,73.05
2022-08-05T05:54:07.891Z,73.05
2022-08-05T05:55:13.135Z,73.11
2022-08-05T05:56:07.874Z,73.01
2022-08-05T05:57:13.922Z,73.21
2022-08-05T05:58:07.823Z,72.81
2022-08-05T05:59:07.720Z,72.48
2022-08-05T06:00:06.792Z,71.98
2022-08-05T06:01:12.697Z,71.69
2022-08-05T06:02:07.812Z,72.08
2022-08-05T06:03:39.766Z,71.84
2022-08-05T06:04:07.874Z,71.45
2022-08-05T06:05:10.638Z,71.35
2022-08-05T06:06:07.721Z,71.05
2022-08-05T06:07:06.730Z,70.72
2022-08-05T06:08:07.009Z,70.52
2022-08-05T06:09:07.656Z,70.62
2022-08-05T06:10:10.207Z,70.22
2022-08-05T06:11:06.681Z,69.59
2022-08-05T06:12:06.644Z,68.33
2022-08-05T06:13:06.642Z,67.83
2022-08-05T06:14:06.672Z,67.54
2022-08-05T06:15:08.001Z,67.83
2022-08-05T06:16:28.194Z,66.65
2022-08-05T06:17:31.875Z,64.57
2022-08-05T06:18:07.574Z,62.10
2022-08-05T06:19:07.343Z,60.36
2022-08-05T06:20:06.921Z,59.15
2022-08-05T06:21:07.960Z,59.64
2022-08-05T06:22:07.553Z,59.42
2022-08-05T06:23:06.505Z,58.20
2022-08-05T06:24:07.757Z,57.71
2022-08-05T06:25:59.173Z,57.71
2022-08-05T06:26:20.730Z,57.17
2022-08-05T06:27:17.205Z,55.95
2022-08-05T06:28:11.506Z,55.41
2022-08-05T06:29:44.258Z,55.31
2022-08-05T06:30:19.942Z,54.43
2022-08-05T06:31:11.100Z,53.83
2022-08-05T06:32:21.230Z,55.56
2022-08-05T06:33:09.849Z,55.76
2022-08-05T06:34:08.901Z,55.56
2022-08-05T06:35:15.399Z,54.03
2022-08-05T06:36:10.096Z,53.64
2022-08-05T06:37:06.793Z,54.13
2022-08-05T06:38:11.302Z,53.41
2022-08-05T06:39:07.393Z,53.51
2022-08-05T06:40:06.289Z,53.41
2022-08-05T06:41:07.842Z,53.31
2022-08-05T06:42:06.260Z,52.92
2022-08-05T06:43:06.627Z,52.33
2022-08-05T06:44:07.442Z,53.64
2022-08-05T06:45:08.307Z,53.99
2022-08-05T06:46:07.301Z,54.57
2022-08-05T06:47:06.241Z,54.55
2022-08-05T06:48:36.023Z,54.25
2022-08-05T06:49:08.283Z,54.00
2022-08-05T06:50:06.176Z,52.38
2022-08-05T06:51:09.358Z,52.15
2022-08-05T06:52:06.132Z,51.98
2022-08-05T06:53:19.593Z,51.98
2022-08-05T06:54:07.146Z,52.06
2022-08-05T06:55:06.174Z,51.17
2022-08-05T06:56:06.103Z,51.27
2022-08-05T06:57:56.935Z,51.37
2022-08-05T06:58:19.786Z,50.88
2022-08-05T06:59:09.614Z,50.46
2022-08-05T07:00:06.060Z,49.46
2022-08-05T07:01:06.491Z,49.24
2022-08-05T07:02:06.031Z,48.85
2022-08-05T07:03:09.611Z,49.24
2022-08-05T07:04:06.022Z,49.14
2022-08-05T07:05:14.407Z,48.86
2022-08-05T07:06:14.131Z,48.86
2022-08-05T07:07:08.074Z,48.92
2022-08-05T07:08:05.944Z,47.52
2022-08-05T07:09:05.958Z,47.91
2022-08-05T07:10:05.973Z,48.41
2022-08-05T07:11:05.922Z,47.33
2022-08-05T07:12:07.293Z,47.94
2022-08-05T07:13:05.915Z,49.60
2022-08-05T07:14:05.914Z,49.41
2022-08-05T07:15:05.915Z,48.63
2022-08-05T07:16:05.921Z,48.13
2022-08-05T07:18:00.227Z,48.01
2022-08-05T07:18:09.346Z,47.55
2022-08-05T07:19:05.885Z,48.16
2022-08-05T07:20:33.363Z,48.45
2022-08-05T07:21:06.814Z,48.25
2022-08-05T07:22:05.804Z,48.52
2022-08-05T07:23:06.575Z,48.43
2022-08-05T07:24:06.203Z,48.57
2022-08-05T07:25:23.945Z,48.67
2022-08-05T07:26:06.752Z,49.08
2022-08-05T07:27:05.714Z,49.77
2022-08-05T07:28:08.387Z,49.16
2022-08-05T07:29:06.735Z,47.94
2022-08-05T07:30:25.508Z,47.01
2022-08-05T07:31:06.689Z,47.11
2022-08-05T07:32:05.675Z,46.79
2022-08-05T07:33:09.934Z,46.79
2022-08-05T07:34:05.635Z,46.65
2022-08-05T07:35:56.790Z,46.47
2022-08-05T07:36:20.054Z,46.59
2022-08-05T07:38:32.549Z,47.72
2022-08-05T07:39:24.400Z,47.50
2022-08-05T07:40:31.404Z,47.25
2022-08-05T07:42:09.336Z,46.86
2022-08-05T07:42:16.839Z,47.77
2022-08-05T07:43:20.689Z,46.84
2022-08-05T07:44:19.021Z,46.62
2022-08-05T07:45:15.725Z,46.44
2022-08-05T07:46:25.189Z,46.11
2022-08-05T07:47:16.693Z,45.47
2022-08-05T07:48:15.672Z,44.35
2022-08-05T07:49:18.168Z,44.53
2022-08-05T07:50:16.662Z,44.40
2022-08-05T07:51:23.720Z,45.86
2022-08-05T07:52:16.622Z,47.69
2022-08-05T07:53:15.601Z,48.62
2022-08-05T07:54:15.594Z,49.31
2022-08-05T07:56:04.969Z,48.40
2022-08-05T07:57:01.306Z,47.89
2022-08-05T07:57:41.309Z,48.38
2022-08-05T07:58:54.502Z,48.57
2022-08-05T07:59:16.533Z,48.55
2022-08-05T08:00:15.563Z,47.52
2022-08-05T08:01:15.942Z,47.23
2022-08-05T08:02:17.355Z,46.98
2022-08-05T08:03:15.991Z,45.89
2022-08-05T08:04:15.515Z,45.13
2022-08-05T08:05:15.498Z,45.42
2022-08-05T08:06:15.461Z,45.83
2022-08-05T08:07:15.874Z,45.86
2022-08-05T08:08:15.443Z,46.83
2022-08-05T08:09:15.414Z,47.83
2022-08-05T08:10:15.416Z,47.74
2022-08-05T08:11:16.412Z,47.64
2022-08-05T08:12:33.472Z,47.54
2022-08-05T08:13:22.157Z,47.00
2022-08-05T08:14:19.034Z,46.78
2022-08-05T08:15:16.113Z,47.20
2022-08-05T08:16:35.597Z,48.13
2022-08-05T08:17:16.656Z,48.43
2022-08-05T08:18:15.368Z,48.40
2022-08-05T08:20:10.017Z,47.77
2022-08-05T08:20:42.336Z,47.25
2022-08-05T08:21:17.452Z,46.95
2022-08-05T08:22:15.993Z,45.73
2022-08-05T08:24:04.003Z,44.64
2022-08-05T08:24:16.326Z,43.93
2022-08-05T08:25:16.380Z,43.63
2022-08-05T08:26:15.224Z,43.66
2022-08-05T08:27:16.638Z,44.54
2022-08-05T08:28:18.886Z,45.15
2022-08-05T08:29:45.401Z,44.15
2022-08-05T08:30:28.536Z,44.88
2022-08-05T08:31:17.508Z,44.90
2022-08-05T08:32:15.177Z,45.68
2022-08-05T08:33:15.607Z,45.98
2022-08-05T08:34:15.178Z,45.88
2022-08-05T08:35:15.124Z,47.10
2022-08-05T08:36:38.279Z,47.08
2022-08-05T08:37:20.896Z,45.76
2022-08-05T08:38:16.722Z,45.49
2022-08-05T08:39:16.440Z,45.88
2022-08-05T08:40:15.075Z,45.43
2022-08-05T08:41:15.188Z,47.05
2022-08-05T08:42:32.505Z,47.05
2022-08-05T08:45:04.465Z,47.86
2022-08-05T08:45:22.151Z,47.86
2022-08-05T08:45:25.209Z,48.86
2022-08-05T08:46:16.310Z,48.67
2022-08-05T08:47:22.294Z,48.35
2022-08-05T08:48:36.100Z,47.98
2022-08-05T08:50:22.916Z,48.69
2022-08-05T08:51:03.524Z,49.50
2022-08-05T08:52:02.367Z,49.50
2022-08-05T08:52:15.982Z,48.52
2022-08-05T08:53:14.926Z,49.62
2022-08-05T08:54:14.904Z,49.21
2022-08-05T08:55:19.667Z,49.40
2022-08-05T08:56:16.305Z,49.70
2022-08-05T08:57:14.866Z,49.28
2022-08-05T08:58:14.837Z,48.61
2022-08-05T08:59:19.720Z,48.71
2022-08-05T09:00:15.838Z,49.16
2022-08-05T09:01:15.762Z,49.26
2022-08-05T09:02:14.837Z,50.14
2022-08-05T09:03:16.265Z,50.44
2022-08-05T09:04:14.763Z,49.43
2022-08-05T09:05:17.478Z,49.23
2022-08-05T09:06:17.183Z,48.94
2022-08-05T09:07:19.405Z,48.66
2022-08-05T09:08:16.150Z,49.33
2022-08-05T09:09:14.695Z,49.62
2022-08-05T09:10:14.706Z,48.94
2022-08-05T09:11:14.743Z,49.40
2022-08-05T09:12:20.659Z,49.30
2022-08-05T09:13:15.664Z,48.22
2022-08-05T09:14:56.816Z,49.52
2022-08-05T09:15:15.625Z,48.74
2022-08-05T09:16:17.049Z,48.57
2022-08-05T09:17:40.080Z,48.86
2022-08-05T09:18:15.598Z,48.54
2022-08-05T09:19:14.718Z,48.83
2022-08-05T09:20:36.216Z,48.35
2022-08-05T09:21:20.747Z,48.74
2022-08-05T09:22:23.299Z,48.44
2022-08-05T09:23:18.843Z,48.25
2022-08-05T09:24:14.496Z,48.05
2022-08-05T09:25:24.330Z,47.66
2022-08-05T09:26:20.555Z,48.44
2022-08-05T09:27:18.834Z,48.44
2022-08-05T09:28:15.476Z,47.53
2022-08-05T09:29:18.712Z,47.06
2022-08-05T09:30:16.272Z,48.07
2022-08-05T09:32:38.607Z,48.88
2022-08-05T09:32:49.995Z,48.79
2022-08-05T09:33:17.151Z,49.60
2022-08-05T09:34:14.386Z,50.02
2022-08-05T09:35:26.432Z,50.31
2022-08-05T09:36:16.671Z,50.12
2022-08-05T09:37:15.093Z,50.59
2022-08-05T09:38:18.690Z,51.67
2022-08-05T09:39:18.076Z,49.99
2022-08-05T09:40:15.379Z,49.69
2022-08-05T09:41:16.149Z,49.28
2022-08-05T09:42:23.391Z,49.38
2022-08-05T09:43:15.256Z,48.66
2022-08-05T09:44:14.416Z,48.05
2022-08-05T09:46:05.167Z,47.75
2022-08-05T09:46:15.679Z,47.92
2022-08-05T09:47:15.539Z,47.22
2022-08-05T09:48:14.217Z,47.80
2022-08-05T09:49:18.927Z,48.18
2022-08-05T09:50:18.267Z,46.11
2022-08-05T09:51:15.910Z,46.09
2022-08-05T09:52:14.137Z,45.70
2022-08-05T09:53:23.081Z,46.58
2022-08-05T09:54:15.148Z,45.50
2022-08-05T09:55:58.137Z,46.19
2022-08-05T09:56:15.136Z,44.83
2022-08-05T09:57:20.580Z,45.92
2022-08-05T09:58:15.151Z,45.23
2022-08-05T09:59:17.165Z,44.73
2022-08-05T10:00:14.097Z,44.34
2022-08-05T10:01:22.351Z,44.05
2022-08-05T10:02:15.114Z,43.93
2022-08-05T10:03:15.464Z,44.52
2022-08-05T10:04:14.043Z,44.42
2022-08-05T10:05:13.976Z,44.42
2022-08-05T10:06:15.429Z,44.81
2022-08-05T10:07:19.895Z,45.60
2022-08-05T10:08:36.080Z,45.57
2022-08-05T10:09:25.310Z,44.49
2022-08-05T10:10:15.761Z,44.08
2022-08-05T10:11:13.917Z,44.57
2022-08-05T10:12:30.220Z,44.55
2022-08-05T10:13:15.334Z,44.23
2022-08-05T10:14:13.894Z,43.62
2022-08-05T10:15:13.864Z,43.13
2022-08-05T10:16:13.838Z,42.94
2022-08-05T10:17:38.029Z,44.02
2022-08-05T10:18:16.681Z,43.72
2022-08-05T10:19:14.257Z,42.96
2022-08-05T10:20:13.854Z,43.66
2022-08-05T10:21:15.692Z,43.98
2022-08-05T10:22:15.853Z,44.40
2022-08-05T10:23:34.073Z,44.30
2022-08-05T10:24:15.208Z,45.28
2022-08-05T10:25:14.346Z,45.01
2022-08-05T10:26:13.885Z,44.91
2022-08-05T10:27:13.733Z,44.32
2022-08-05T10:28:19.264Z,45.30
2022-08-05T10:29:16.372Z,45.10
2022-08-05T10:31:20.343Z,45.60
2022-08-05T10:32:52.562Z,45.20
2022-08-05T10:32:54.910Z,45.50
2022-08-05T10:33:15.147Z,45.42
2022-08-05T10:34:13.657Z,44.91
2022-08-05T10:35:13.638Z,45.38
2022-08-05T10:36:14.046Z,43.88
2022-08-05T10:37:13.661Z,43.66
2022-08-05T10:38:13.670Z,43.57
2022-08-05T10:39:24.089Z,44.23
2022-08-05T10:40:17.965Z,44.45
2022-08-05T10:41:13.810Z,45.14
2022-08-05T10:42:13.582Z,44.23
2022-08-05T10:43:13.526Z,43.65
2022-08-05T10:44:13.506Z,42.86
2022-08-05T10:45:23.965Z,42.57
2022-08-05T10:46:14.486Z,43.18
2022-08-05T10:47:26.655Z,43.49
2022-08-05T10:48:31.588Z,43.49
2022-08-05T10:49:16.762Z,43.08
2022-08-05T10:50:20.526Z,42.98
2022-08-05T10:51:22.074Z,42.37
2022-08-05T10:52:14.420Z,42.08
2022-08-05T10:53:13.368Z,43.05
2022-08-05T10:54:23.038Z,42.66
2022-08-05T10:55:16.093Z,42.76
2022-08-05T10:56:21.311Z,44.41
2022-08-05T10:57:14.349Z,44.02
2022-08-05T10:58:15.595Z,44.12
2022-08-05T11:00:03.581Z,43.33
2022-08-05T11:00:19.256Z,41.64
2022-08-05T11:01:15.113Z,42.43
2022-08-05T11:02:34.749Z,42.52
2022-08-05T11:03:23.785Z,42.52
2022-08-05T11:04:14.259Z,42.23
2022-08-05T11:05:13.694Z,42.62
2022-08-05T11:06:15.793Z,42.82
2022-08-05T11:07:13.195Z,42.33
2022-08-05T11:08:33.709Z,43.12
2022-08-05T11:09:16.745Z,43.12
2022-08-05T11:10:13.242Z,42.33
2022-08-05T11:11:16.692Z,41.94
2022-08-05T11:12:13.128Z,42.11
2022-08-05T11:13:13.118Z,41.72
2022-08-05T11:14:13.106Z,41.92
2022-08-05T11:15:20.194Z,42.70
2022-08-05T11:16:14.088Z,42.68
2022-08-05T11:17:59.624Z,42.29
2022-08-05T11:18:14.166Z,41.72
2022-08-05T11:20:10.721Z,41.13
2022-08-05T11:20:18.579Z,41.13
2022-08-05T11:21:13.046Z,40.76
2022-08-05T11:22:13.089Z,41.52
2022-08-05T11:23:13.066Z,41.13
2022-08-05T11:24:28.060Z,41.62
2022-08-05T11:25:16.855Z,42.11
2022-08-05T11:26:14.309Z,41.62
2022-08-05T11:27:12.938Z,42.21
2022-08-05T11:28:16.999Z,41.23
2022-08-05T11:29:14.345Z,42.02
2022-08-05T11:30:12.912Z,41.99
2022-08-05T11:31:12.943Z,40.35
2022-08-05T11:32:14.350Z,41.52
2022-08-05T11:33:13.671Z,41.02
2022-08-05T11:34:14.714Z,42.09
2022-08-05T11:35:15.509Z,40.92
2022-08-05T11:36:12.849Z,41.80
2022-08-05T11:38:29.156Z,40.21
2022-08-05T11:38:36.741Z,41.49
2022-08-05T11:39:13.908Z,40.11
2022-08-05T11:40:12.769Z,42.85
2022-08-05T11:41:54.495Z,40.70
2022-08-05T11:42:18.418Z,41.31
2022-08-05T11:43:12.769Z,40.43
2022-08-05T11:44:12.971Z,39.84
2022-08-05T11:45:23.140Z,40.94
2022-08-05T11:46:16.195Z,41.92
2022-08-05T11:47:49.804Z,41.82
2022-08-05T11:48:13.690Z,41.05
2022-08-05T11:49:12.747Z,41.47
2022-08-05T11:50:14.282Z,41.56
2022-08-05T11:51:12.638Z,41.86
2022-08-05T11:52:13.641Z,41.55
2022-08-05T11:53:12.659Z,41.64
2022-08-05T11:54:13.903Z,41.23
2022-08-05T11:55:12.713Z,41.42
2022-08-05T11:56:12.598Z,41.92
2022-08-05T11:57:25.516Z,40.92
2022-08-05T11:58:13.571Z,40.92
2022-08-05T11:59:13.628Z,42.19
2022-08-05T12:00:12.549Z,42.19
2022-08-05T12:01:12.869Z,41.00
2022-08-05T12:02:30.666Z,41.29
2022-08-05T12:03:13.725Z,40.50
2022-08-05T12:04:12.497Z,41.29
2022-08-05T12:05:17.866Z,41.00
2022-08-05T12:06:13.784Z,40.78
2022-08-05T12:07:12.485Z,40.09
2022-08-05T12:08:18.196Z,39.78
2022-08-05T12:09:19.842Z,39.78
2022-08-05T12:10:13.575Z,39.18
2022-08-05T12:11:20.318Z,38.98
2022-08-05T12:12:13.710Z,38.12
2022-08-05T12:13:13.944Z,38.61
2022-08-05T12:14:12.380Z,38.82
2022-08-05T12:15:15.118Z,38.53
2022-08-05T12:16:14.723Z,39.31
2022-08-05T12:18:00.731Z,38.82
2022-08-05T12:18:13.989Z,39.22
2022-08-05T12:20:17.179Z,39.02
2022-08-05T12:20:17.235Z,39.02
2022-08-05T12:21:13.308Z,39.12
2022-08-05T12:22:12.266Z,39.70
2022-08-05T12:23:13.276Z,38.24
2022-08-05T12:24:12.378Z,39.61
2022-08-05T12:25:14.208Z,39.62
2022-08-05T12:26:12.222Z,38.63
2022-08-05T12:27:21.502Z,40.09
2022-08-05T12:28:15.702Z,40.00
2022-08-05T12:29:15.925Z,38.34
2022-08-05T12:30:15.316Z,38.24
2022-08-05T12:31:12.129Z,38.82
2022-08-05T12:32:13.117Z,38.82
2022-08-05T12:33:35.969Z,39.10
2022-08-05T12:34:20.604Z,38.63
2022-08-05T12:35:13.117Z,38.92
2022-08-05T12:36:12.278Z,39.33
2022-08-05T12:37:29.839Z,39.43
2022-08-05T12:38:13.061Z,39.82
2022-08-05T12:39:12.573Z,40.23
2022-08-05T12:40:12.203Z,39.53
2022-08-05T12:41:13.821Z,40.03
2022-08-05T12:42:14.440Z,39.06
2022-08-05T12:43:12.140Z,39.92
2022-08-05T12:44:14.406Z,39.33
2022-08-05T12:45:13.329Z,40.11
2022-08-05T12:46:12.353Z,39.80
2022-08-05T12:47:12.497Z,38.63
2022-08-05T12:48:27.814Z,38.92
2022-08-05T12:49:13.529Z,39.22
2022-08-05T12:50:12.160Z,38.63
2022-08-05T12:52:10.255Z,38.16
2022-08-05T12:52:23.823Z,38.45
2022-08-05T12:53:12.861Z,38.94
2022-08-05T12:54:14.791Z,37.57
2022-08-05T12:55:12.872Z,38.75
2022-08-05T12:56:34.201Z,37.45
2022-08-05T12:57:13.052Z,36.96
2022-08-05T12:58:38.913Z,37.73
2022-08-05T12:59:13.978Z,37.32
2022-08-05T13:02:00.488Z,37.50
2022-08-05T13:02:02.843Z,36.54
2022-08-05T13:02:12.835Z,37.50
2022-08-05T13:03:12.330Z,36.44
2022-08-05T13:04:11.701Z,36.83